sensor_id;sensor_type;location;lat;lon;timestamp;pressure;altitude;pressure_sealevel;temperature;humidity
12358;BME280;6243;51.244;6.774;2023-04-01T00:00:01;152177.59;;;18.67;74.64
12358;BME280;6243;51.244;6.774;2023-04-01T00:02:26;152010.00;;;18.01;77.38
12358;BME280;6243;51.244;6.774;2023-04-01T00:04:53;151747.94;;;16.98;86.64
12358;BME280;6243;51.244;6.774;2023-04-01T00:07:19;151846.31;;;17.37;86.93
12358;BME280;6243;51.244;6.774;2023-04-01T00:09:44;152095.66;;;18.35;80.67
12358;BME280;6243;51.244;6.774;2023-04-01T00:12:10;151869.31;;;17.46;85.38
12358;BME280;6243;51.244;6.774;2023-04-01T00:14:35;151990.81;;;17.94;83.28
12358;BME280;6243;51.244;6.774;2023-04-01T00:17:01;152054.75;;;18.19;81.44
12358;BME280;6243;51.244;6.774;2023-04-01T00:19:26;152062.44;;;18.22;80.47
12358;BME280;6243;51.244;6.774;2023-04-01T00:21:53;151801.63;;;17.19;86.08
12358;BME280;6243;51.244;6.774;2023-04-01T00:24:19;152065.00;;;18.23;81.76
12358;BME280;6243;51.244;6.774;2023-04-01T00:26:44;152135.34;;;18.51;79.89
12358;BME280;6243;51.244;6.774;2023-04-01T00:29:09;152066.25;;;18.23;81.18
12358;BME280;6243;51.244;6.774;2023-04-01T00:31:35;152239.03;;;18.91;76.03
12358;BME280;6243;51.244;6.774;2023-04-01T00:34:01;152152.03;;;18.57;76.97
12358;BME280;6243;51.244;6.774;2023-04-01T00:36:26;152084.16;;;18.30;77.92
12358;BME280;6243;51.244;6.774;2023-04-01T00:38:53;152207.00;;;18.79;76.00
12358;BME280;6243;51.244;6.774;2023-04-01T00:41:19;151926.91;;;17.68;83.83
12358;BME280;6243;51.244;6.774;2023-04-01T00:43:46;152034.31;;;18.11;83.65
12358;BME280;6243;51.244;6.774;2023-04-01T00:46:12;152126.44;;;18.47;79.42
12358;BME280;6243;51.244;6.774;2023-04-01T00:48:39;152172.47;;;18.65;76.39
12358;BME280;6243;51.244;6.774;2023-04-01T00:51:09;151990.81;;;17.94;83.87
12358;BME280;6243;51.244;6.774;2023-04-01T00:53:38;151831.00;;;17.31;86.58
12358;BME280;6243;51.244;6.774;2023-04-01T00:56:11;152224.94;;;18.86;76.69
12358;BME280;6243;51.244;6.774;2023-04-01T00:58:41;152237.72;;;18.91;72.84
12358;BME280;6243;51.244;6.774;2023-04-01T01:01:08;151981.88;;;17.90;77.61
12358;BME280;6243;51.244;6.774;2023-04-01T01:03:34;152075.22;;;18.27;77.40
12358;BME280;6243;51.244;6.774;2023-04-01T01:06:12;152287.63;;;19.10;73.65
12358;BME280;6243;51.244;6.774;2023-04-01T01:08:52;152139.22;;;18.52;75.16
12358;BME280;6243;51.244;6.774;2023-04-01T01:11:33;152183.97;;;18.70;75.62
12358;BME280;6243;51.244;6.774;2023-04-01T01:14:08;152139.22;;;18.52;77.22
12358;BME280;6243;51.244;6.774;2023-04-01T01:16:39;152034.31;;;18.11;76.61
12358;BME280;6243;51.244;6.774;2023-04-01T01:19:19;152114.88;;;18.42;76.01
12358;BME280;6243;51.244;6.774;2023-04-01T01:22:08;152075.22;;;18.27;79.04
12358;BME280;6243;51.244;6.774;2023-04-01T01:24:56;151958.88;;;17.81;82.02
12358;BME280;6243;51.244;6.774;2023-04-01T01:27:31;152126.44;;;18.47;76.75
12358;BME280;6243;51.244;6.774;2023-04-01T01:30:14;152399.03;;;19.54;71.42
12358;BME280;6243;51.244;6.774;2023-04-01T01:35:31;152221.09;;;18.84;74.34
12358;BME280;6243;51.244;6.774;2023-04-01T01:38:00;152036.84;;;18.12;77.57
12358;BME280;6243;51.244;6.774;2023-04-01T01:40:27;152162.25;;;18.61;76.77
12358;BME280;6243;51.244;6.774;2023-04-01T01:42:58;152011.28;;;18.02;79.17
12358;BME280;6243;51.244;6.774;2023-04-01T01:45:26;151961.41;;;17.82;81.53
12358;BME280;6243;51.244;6.774;2023-04-01T01:47:53;152021.50;;;18.06;83.36
12358;BME280;6243;51.244;6.774;2023-04-01T01:50:21;151845.09;;;17.36;87.74
12358;BME280;6243;51.244;6.774;2023-04-01T01:52:49;151960.16;;;17.82;83.79
12358;BME280;6243;51.244;6.774;2023-04-01T01:55:26;151865.50;;;17.44;85.95
12358;BME280;6243;51.244;6.774;2023-04-01T01:57:52;152017.69;;;18.04;84.07
12358;BME280;6243;51.244;6.774;2023-04-01T02:00:19;151966.56;;;17.84;84.96
12358;BME280;6243;51.244;6.774;2023-04-01T02:02:46;151962.69;;;17.83;86.34
12358;BME280;6243;51.244;6.774;2023-04-01T02:05:16;152080.34;;;18.29;81.44
12358;BME280;6243;51.244;6.774;2023-04-01T02:07:45;152719.25;;;20.80;70.77
12358;BME280;6243;51.244;6.774;2023-04-01T02:10:14;152457.91;;;19.77;70.23
12358;BME280;6243;51.244;6.774;2023-04-01T02:12:42;152643.66;;;20.50;66.91
12358;BME280;6243;51.244;6.774;2023-04-01T02:15:12;152547.50;;;20.13;66.99
12358;BME280;6243;51.244;6.774;2023-04-01T02:17:42;152864.09;;;21.37;64.40
12358;BME280;6243;51.244;6.774;2023-04-01T02:20:11;152705.13;;;20.75;65.19
12358;BME280;6243;51.244;6.774;2023-04-01T02:22:40;152652.59;;;20.54;69.25
12358;BME280;6243;51.244;6.774;2023-04-01T02:25:09;152660.28;;;20.57;66.85
12358;BME280;6243;51.244;6.774;2023-04-01T02:27:38;152706.41;;;20.75;65.92
12358;BME280;6243;51.244;6.774;2023-04-01T02:30:04;152849.97;;;21.32;63.71
12358;BME280;6243;51.244;6.774;2023-04-01T02:32:31;152957.69;;;21.74;61.82
12358;BME280;6243;51.244;6.774;2023-04-01T02:34:59;152737.19;;;20.87;63.12
12358;BME280;6243;51.244;6.774;2023-04-01T02:37:25;152642.34;;;20.50;65.09
12358;BME280;6243;51.244;6.774;2023-04-01T02:39:50;152829.50;;;21.24;64.14
12358;BME280;6243;51.244;6.774;2023-04-01T02:42:16;152701.28;;;20.73;64.84
12358;BME280;6243;51.244;6.774;2023-04-01T02:44:43;152808.97;;;21.15;62.88
12358;BME280;6243;51.244;6.774;2023-04-01T02:47:08;152876.94;;;21.42;61.96
12358;BME280;6243;51.244;6.774;2023-04-01T02:49:33;152739.72;;;20.88;61.89
12358;BME280;6243;51.244;6.774;2023-04-01T02:51:59;152687.19;;;20.68;63.87
12358;BME280;6243;51.244;6.774;2023-04-01T02:54:25;152717.94;;;20.80;64.37
12358;BME280;6243;51.244;6.774;2023-04-01T02:56:51;152780.78;;;21.04;62.83
12358;BME280;6243;51.244;6.774;2023-04-01T02:59:16;152879.47;;;21.43;61.94
12358;BME280;6243;51.244;6.774;2023-04-01T03:01:43;152864.09;;;21.37;61.76
12358;BME280;6243;51.244;6.774;2023-04-01T03:04:08;152879.47;;;21.43;61.99
12358;BME280;6243;51.244;6.774;2023-04-01T03:06:34;152766.66;;;20.99;62.34
12358;BME280;6243;51.244;6.774;2023-04-01T03:08:59;152991.06;;;21.87;60.55
12358;BME280;6243;51.244;6.774;2023-04-01T03:11:25;152858.97;;;21.35;61.23
12358;BME280;6243;51.244;6.774;2023-04-01T03:13:50;152862.81;;;21.37;61.00
12358;BME280;6243;51.244;6.774;2023-04-01T03:16:16;152997.47;;;21.89;59.54
12358;BME280;6243;51.244;6.774;2023-04-01T03:18:43;153092.38;;;22.27;59.18
12358;BME280;6243;51.244;6.774;2023-04-01T03:21:16;153100.06;;;22.30;58.81
12358;BME280;6243;51.244;6.774;2023-04-01T03:23:41;152752.53;;;20.93;62.13
12358;BME280;6243;51.244;6.774;2023-04-01T03:26:07;152870.50;;;21.40;60.96
12358;BME280;6243;51.244;6.774;2023-04-01T03:28:32;152819.25;;;21.19;61.74
12358;BME280;6243;51.244;6.774;2023-04-01T03:30:58;152647.47;;;20.52;63.88
12358;BME280;6243;51.244;6.774;2023-04-01T03:33:23;152826.91;;;21.23;61.94
12358;BME280;6243;51.244;6.774;2023-04-01T03:35:50;152828.19;;;21.23;61.61
12358;BME280;6243;51.244;6.774;2023-04-01T03:38:16;152780.78;;;21.04;61.88
12358;BME280;6243;51.244;6.774;2023-04-01T03:40:42;152571.91;;;20.22;64.47
12358;BME280;6243;51.244;6.774;2023-04-01T03:43:07;152837.16;;;21.27;61.82
12358;BME280;6243;51.244;6.774;2023-04-01T03:45:33;152823.06;;;21.21;61.73
12358;BME280;6243;51.244;6.774;2023-04-01T03:47:58;152726.88;;;20.83;62.78
12358;BME280;6243;51.244;6.774;2023-04-01T03:50:24;152739.72;;;20.88;62.05
12358;BME280;6243;51.244;6.774;2023-04-01T03:52:50;152833.31;;;21.25;61.60
12358;BME280;6243;51.244;6.774;2023-04-01T03:55:16;152912.78;;;21.56;60.24
12358;BME280;6243;51.244;6.774;2023-04-01T03:57:42;152879.47;;;21.43;61.05
12358;BME280;6243;51.244;6.774;2023-04-01T04:00:08;152897.41;;;21.50;60.12
12358;BME280;6243;51.244;6.774;2023-04-01T04:02:34;152650.06;;;20.53;63.28
12358;BME280;6243;51.244;6.774;2023-04-01T04:04:59;152787.19;;;21.07;61.78
12358;BME280;6243;51.244;6.774;2023-04-01T04:07:25;152889.69;;;21.47;60.75
12358;BME280;6243;51.244;6.774;2023-04-01T04:09:52;153043.63;;;22.08;59.27
12358;BME280;6243;51.244;6.774;2023-04-01T04:12:17;152929.50;;;21.63;60.47
12358;BME280;6243;51.244;6.774;2023-04-01T04:14:43;152917.94;;;21.58;60.25
12358;BME280;6243;51.244;6.774;2023-04-01T04:17:10;152833.31;;;21.25;60.14
12358;BME280;6243;51.244;6.774;2023-04-01T04:19:35;152910.25;;;21.55;60.37
12358;BME280;6243;51.244;6.774;2023-04-01T04:22:01;152885.88;;;21.46;60.48
12358;BME280;6243;51.244;6.774;2023-04-01T04:24:26;152806.44;;;21.14;61.32
12358;BME280;6243;51.244;6.774;2023-04-01T04:26:53;152933.31;;;21.64;60.11
12358;BME280;6243;51.244;6.774;2023-04-01T04:29:18;152802.53;;;21.13;61.46
12358;BME280;6243;51.244;6.774;2023-04-01T04:31:44;152946.16;;;21.69;60.39
12358;BME280;6243;51.244;6.774;2023-04-01T04:34:09;152976.88;;;21.81;59.89
12358;BME280;6243;51.244;6.774;2023-04-01T04:36:35;153043.63;;;22.08;58.84
12358;BME280;6243;51.244;6.774;2023-04-01T04:39:00;153025.69;;;22.01;59.36
12358;BME280;6243;51.244;6.774;2023-04-01T04:41:26;152894.88;;;21.49;59.78
12358;BME280;6243;51.244;6.774;2023-04-01T04:43:54;152776.91;;;21.03;61.70
12358;BME280;6243;51.244;6.774;2023-04-01T04:46:20;152875.63;;;21.42;61.01
12358;BME280;6243;51.244;6.774;2023-04-01T04:48:46;152623.13;;;20.42;63.24
12358;BME280;6243;51.244;6.774;2023-04-01T04:51:14;152773.06;;;21.01;62.14
12358;BME280;6243;51.244;6.774;2023-04-01T04:53:39;152528.34;;;20.05;63.76
12358;BME280;6243;51.244;6.774;2023-04-01T04:56:05;152900.00;;;21.51;61.05
12358;BME280;6243;51.244;6.774;2023-04-01T04:58:31;153046.16;;;22.09;59.33
12358;BME280;6243;51.244;6.774;2023-04-01T05:00:58;152674.41;;;20.63;62.64
12358;BME280;6243;51.244;6.774;2023-04-01T05:03:23;152935.84;;;21.65;60.43
12358;BME280;6243;51.244;6.774;2023-04-01T05:05:50;152815.38;;;21.18;60.82
12358;BME280;6243;51.244;6.774;2023-04-01T05:08:15;152751.25;;;20.93;62.64
12358;BME280;6243;51.244;6.774;2023-04-01T05:10:41;152644.94;;;20.51;63.73
12358;BME280;6243;51.244;6.774;2023-04-01T05:13:07;152624.41;;;20.43;64.40
12358;BME280;6243;51.244;6.774;2023-04-01T05:15:32;152835.91;;;21.26;62.13
12358;BME280;6243;51.244;6.774;2023-04-01T05:17:59;152746.13;;;20.91;63.36
12358;BME280;6243;51.244;6.774;2023-04-01T05:20:24;152796.19;;;21.10;62.44
12358;BME280;6243;51.244;6.774;2023-04-01T05:22:53;152984.63;;;21.84;60.24
12358;BME280;6243;51.244;6.774;2023-04-01T05:25:20;152805.13;;;21.14;61.89
12358;BME280;6243;51.244;6.774;2023-04-01T05:27:45;152577.03;;;20.24;63.44
12358;BME280;6243;51.244;6.774;2023-04-01T05:30:11;152846.16;;;21.30;61.53
12358;BME280;6243;51.244;6.774;2023-04-01T05:32:37;152552.63;;;20.15;64.67
12358;BME280;6243;51.244;6.774;2023-04-01T05:35:05;152758.94;;;20.96;62.55
12358;BME280;6243;51.244;6.774;2023-04-01T05:37:30;152825.63;;;21.22;61.73
12358;BME280;6243;51.244;6.774;2023-04-01T05:39:56;152882.03;;;21.44;61.09
12358;BME280;6243;51.244;6.774;2023-04-01T05:42:21;152730.78;;;20.85;62.54
12358;BME280;6243;51.244;6.774;2023-04-01T05:44:47;152920.47;;;21.59;60.78
12358;BME280;6243;51.244;6.774;2023-04-01T05:47:12;152828.19;;;21.23;61.00
12358;BME280;6243;51.244;6.774;2023-04-01T05:49:38;152924.31;;;21.61;60.50
12358;BME280;6243;51.244;6.774;2023-04-01T05:52:05;152902.53;;;21.52;60.51
12358;BME280;6243;51.244;6.774;2023-04-01T05:54:30;152696.19;;;20.71;62.33
12358;BME280;6243;51.244;6.774;2023-04-01T05:56:56;152798.72;;;21.11;61.29
12358;BME280;6243;51.244;6.774;2023-04-01T05:59:21;152674.41;;;20.63;62.56
12358;BME280;6243;51.244;6.774;2023-04-01T06:01:47;152628.25;;;20.44;63.25
12358;BME280;6243;51.244;6.774;2023-04-01T06:04:14;152821.78;;;21.20;61.61
12358;BME280;6243;51.244;6.774;2023-04-01T06:06:39;152806.44;;;21.14;61.68
12358;BME280;6243;51.244;6.774;2023-04-01T06:09:13;152915.38;;;21.57;60.66
12358;BME280;6243;51.244;6.774;2023-04-01T06:11:51;152942.25;;;21.68;60.20
12358;BME280;6243;51.244;6.774;2023-04-01T06:14:26;152833.31;;;21.25;61.22
12358;BME280;6243;51.244;6.774;2023-04-01T06:17:04;152935.84;;;21.65;60.42
12358;BME280;6243;51.244;6.774;2023-04-01T06:19:40;152873.03;;;21.41;61.07
12358;BME280;6243;51.244;6.774;2023-04-01T06:25:39;152947.38;;;21.70;60.46
12358;BME280;6243;51.244;6.774;2023-04-01T06:28:37;152975.63;;;21.81;60.24
12358;BME280;6243;51.244;6.774;2023-04-01T06:31:11;152912.78;;;21.56;60.58
12358;BME280;6243;51.244;6.774;2023-04-01T06:33:50;152765.38;;;20.98;61.01
12358;BME280;6243;51.244;6.774;2023-04-01T06:36:34;152843.56;;;21.29;61.63
12358;BME280;6243;51.244;6.774;2023-04-01T06:39:17;152920.47;;;21.59;60.41
12358;BME280;6243;51.244;6.774;2023-04-01T06:42:04;153011.56;;;21.95;59.74
12358;BME280;6243;51.244;6.774;2023-04-01T06:44:38;152946.16;;;21.69;60.17
12358;BME280;6243;51.244;6.774;2023-04-01T06:47:19;152930.72;;;21.63;60.84
12358;BME280;6243;51.244;6.774;2023-04-01T06:49:54;152993.66;;;21.88;59.86
12358;BME280;6243;51.244;6.774;2023-04-01T06:52:26;152874.34;;;21.41;61.23
12358;BME280;6243;51.244;6.774;2023-04-01T06:55:00;152869.22;;;21.39;61.11
12358;BME280;6243;51.244;6.774;2023-04-01T06:57:33;152934.59;;;21.65;60.52
12358;BME280;6243;51.244;6.774;2023-04-01T07:00:03;152938.44;;;21.66;60.18
12358;BME280;6243;51.244;6.774;2023-04-01T07:02:33;152930.72;;;21.63;60.34
12358;BME280;6243;51.244;6.774;2023-04-01T07:05:02;152948.69;;;21.70;60.19
12358;BME280;6243;51.244;6.774;2023-04-01T07:07:33;152964.09;;;21.76;60.17
12358;BME280;6243;51.244;6.774;2023-04-01T07:10:05;153061.59;;;22.15;59.52
12358;BME280;6243;51.244;6.774;2023-04-01T07:12:43;153091.09;;;22.26;59.19
12358;BME280;6243;51.244;6.774;2023-04-01T07:15:17;152725.66;;;20.83;61.57
12358;BME280;6243;51.244;6.774;2023-04-01T07:17:45;153034.63;;;22.04;59.79
12358;BME280;6243;51.244;6.774;2023-04-01T07:20:17;153043.63;;;22.08;59.78
12358;BME280;6243;51.244;6.774;2023-04-01T07:22:48;153064.13;;;22.16;59.19
12358;BME280;6243;51.244;6.774;2023-04-01T07:25:17;153061.59;;;22.15;59.16
12358;BME280;6243;51.244;6.774;2023-04-01T07:27:45;153089.81;;;22.26;59.07
12358;BME280;6243;51.244;6.774;2023-04-01T07:30:15;153085.97;;;22.24;58.81
12358;BME280;6243;51.244;6.774;2023-04-01T07:32:42;153020.56;;;21.99;59.34
12358;BME280;6243;51.244;6.774;2023-04-01T07:35:18;153096.22;;;22.28;58.73
12358;BME280;6243;51.244;6.774;2023-04-01T07:37:55;153038.50;;;22.06;59.02
12358;BME280;6243;51.244;6.774;2023-04-01T07:40:28;153017.97;;;21.98;59.32
12358;BME280;6243;51.244;6.774;2023-04-01T07:43:10;153039.81;;;22.06;59.21
12358;BME280;6243;51.244;6.774;2023-04-01T07:45:41;153102.63;;;22.31;58.75
12358;BME280;6243;51.244;6.774;2023-04-01T07:48:19;153105.19;;;22.32;59.12
12358;BME280;6243;51.244;6.774;2023-04-01T07:50:54;152985.94;;;21.85;59.93
12358;BME280;6243;51.244;6.774;2023-04-01T07:53:26;153060.31;;;22.14;58.92
12358;BME280;6243;51.244;6.774;2023-04-01T07:55:59;153082.09;;;22.23;58.78
12358;BME280;6243;51.244;6.774;2023-04-01T07:58:35;153160.34;;;22.53;58.29
12358;BME280;6243;51.244;6.774;2023-04-01T08:01:11;152952.56;;;21.72;59.94
12358;BME280;6243;51.244;6.774;2023-04-01T08:03:53;153093.63;;;22.27;58.71
12358;BME280;6243;51.244;6.774;2023-04-01T08:06:25;153059.00;;;22.14;58.75
12358;BME280;6243;51.244;6.774;2023-04-01T08:09:01;153028.25;;;22.02;59.09
12358;BME280;6243;51.244;6.774;2023-04-01T08:11:41;152934.59;;;21.65;60.17
12358;BME280;6243;51.244;6.774;2023-04-01T08:14:16;152988.47;;;21.86;59.39
12358;BME280;6243;51.244;6.774;2023-04-01T08:16:50;152957.69;;;21.74;59.97
12358;BME280;6243;51.244;6.774;2023-04-01T08:19:30;152971.75;;;21.79;60.29
12358;BME280;6243;51.244;6.774;2023-04-01T08:21:58;153042.34;;;22.07;59.62
12358;BME280;6243;51.244;6.774;2023-04-01T08:24:33;153078.25;;;22.21;59.34
12358;BME280;6243;51.244;6.774;2023-04-01T08:27:03;153034.63;;;22.04;59.59
12358;BME280;6243;51.244;6.774;2023-04-01T08:29:38;153005.19;;;21.93;59.68
12358;BME280;6243;51.244;6.774;2023-04-01T08:32:09;152955.09;;;21.73;60.32
12358;BME280;6243;51.244;6.774;2023-04-01T08:34:38;152937.16;;;21.66;60.35
12358;BME280;6243;51.244;6.774;2023-04-01T08:37:08;153034.63;;;22.04;59.74
12358;BME280;6243;51.244;6.774;2023-04-01T08:39:38;153087.22;;;22.25;59.13
12358;BME280;6243;51.244;6.774;2023-04-01T08:45:22;153041.06;;;22.07;59.82
12358;BME280;6243;51.244;6.774;2023-04-01T08:50:54;153073.13;;;22.19;59.49
12358;BME280;6243;51.244;6.774;2023-04-01T08:53:39;153106.47;;;22.32;59.05
12358;BME280;6243;51.244;6.774;2023-04-01T08:56:14;153103.94;;;22.31;59.40
12358;BME280;6243;51.244;6.774;2023-04-01T08:58:54;153092.38;;;22.27;59.16
12358;BME280;6243;51.244;6.774;2023-04-01T09:04:33;153159.06;;;22.53;58.80
12358;BME280;6243;51.244;6.774;2023-04-01T09:07:12;153184.78;;;22.63;58.65
12358;BME280;6243;51.244;6.774;2023-04-01T09:10:07;153153.94;;;22.51;59.15
12358;BME280;6243;51.244;6.774;2023-04-01T09:13:01;153177.06;;;22.60;58.59
12358;BME280;6243;51.244;6.774;2023-04-01T09:15:58;153128.25;;;22.41;58.78
12358;BME280;6243;51.244;6.774;2023-04-01T09:18:43;153178.38;;;22.61;58.23
12358;BME280;6243;51.244;6.774;2023-04-01T09:21:25;153174.44;;;22.59;58.91
12358;BME280;6243;51.244;6.774;2023-04-01T09:27:03;153079.56;;;22.22;59.77
12358;BME280;6243;51.244;6.774;2023-04-01T09:29:44;153189.91;;;22.65;58.72
12358;BME280;6243;51.244;6.774;2023-04-01T09:32:29;153160.34;;;22.53;58.80
12358;BME280;6243;51.244;6.774;2023-04-01T09:35:14;153218.13;;;22.76;58.81
12358;BME280;6243;51.244;6.774;2023-04-01T09:37:52;153229.69;;;22.81;59.04
12358;BME280;6243;51.244;6.774;2023-04-01T09:40:23;153162.91;;;22.54;58.43
12358;BME280;6243;51.244;6.774;2023-04-01T09:43:06;153160.34;;;22.53;58.59
12358;BME280;6243;51.244;6.774;2023-04-01T09:45:46;153196.34;;;22.68;58.47
12358;BME280;6243;51.244;6.774;2023-04-01T09:48:21;153156.53;;;22.52;58.28
12358;BME280;6243;51.244;6.774;2023-04-01T09:51:01;153048.75;;;22.10;59.36
12358;BME280;6243;51.244;6.774;2023-04-01T09:53:46;153119.31;;;22.37;58.62
12358;BME280;6243;51.244;6.774;2023-04-01T09:56:41;153215.56;;;22.75;57.87
12358;BME280;6243;51.244;6.774;2023-04-01T09:59:31;153191.22;;;22.66;58.38
12358;BME280;6243;51.244;6.774;2023-04-01T10:08:42;153207.88;;;22.72;58.15
12358;BME280;6243;51.244;6.774;2023-04-01T10:14:36;153165.47;;;22.55;58.49
12358;BME280;6243;51.244;6.774;2023-04-01T10:17:29;153116.72;;;22.36;59.01
12358;BME280;6243;51.244;6.774;2023-04-01T10:20:34;153233.53;;;22.82;58.52
12358;BME280;6243;51.244;6.774;2023-04-01T10:23:28;153332.34;;;23.21;57.58
12358;BME280;6243;51.244;6.774;2023-04-01T10:26:31;153200.19;;;22.69;58.74
12358;BME280;6243;51.244;6.774;2023-04-01T10:29:18;153275.88;;;22.99;58.20
12358;BME280;6243;51.244;6.774;2023-04-01T10:35:07;153279.72;;;23.00;58.43
12358;BME280;6243;51.244;6.774;2023-04-01T10:38:11;153224.56;;;22.79;58.33
12358;BME280;6243;51.244;6.774;2023-04-01T10:41:05;153189.91;;;22.65;58.81
12358;BME280;6243;51.244;6.774;2023-04-01T10:44:23;153230.97;;;22.81;58.45
12358;BME280;6243;51.244;6.774;2023-04-01T10:50:24;153268.16;;;22.96;58.06
12358;BME280;6243;51.244;6.774;2023-04-01T10:53:22;153290.00;;;23.04;58.11
12358;BME280;6243;51.244;6.774;2023-04-01T11:02:47;153301.56;;;23.09;58.23
12358;BME280;6243;51.244;6.774;2023-04-01T11:05:54;153298.97;;;23.08;58.46
12358;BME280;6243;51.244;6.774;2023-04-01T11:12:08;153341.34;;;23.24;58.13
12358;BME280;6243;51.244;6.774;2023-04-01T11:15:06;153188.63;;;22.65;59.21
12358;BME280;6243;51.244;6.774;2023-04-01T11:27:12;153184.78;;;22.63;59.51
12358;BME280;6243;51.244;6.774;2023-04-01T11:29:55;153232.22;;;22.82;58.97
12358;BME280;6243;51.244;6.774;2023-04-01T11:32:39;153252.78;;;22.90;58.88
12358;BME280;6243;51.244;6.774;2023-04-01T11:35:32;153314.38;;;23.14;58.60
12358;BME280;6243;51.244;6.774;2023-04-01T11:38:07;153248.94;;;22.88;59.06
12358;BME280;6243;51.244;6.774;2023-04-01T11:40:45;153186.03;;;22.64;59.07
12358;BME280;6243;51.244;6.774;2023-04-01T11:43:21;153221.97;;;22.78;59.22
12358;BME280;6243;51.244;6.774;2023-04-01T11:45:55;153248.94;;;22.88;59.13
12358;BME280;6243;51.244;6.774;2023-04-01T11:48:50;153265.63;;;22.95;59.09
12358;BME280;6243;51.244;6.774;2023-04-01T11:51:40;153125.72;;;22.40;59.84
12358;BME280;6243;51.244;6.774;2023-04-01T11:54:17;153245.06;;;22.87;58.95
12358;BME280;6243;51.244;6.774;2023-04-01T11:57:12;153216.84;;;22.76;59.01
12358;BME280;6243;51.244;6.774;2023-04-01T11:59:54;153248.94;;;22.88;58.82
12358;BME280;6243;51.244;6.774;2023-04-01T12:02:29;153214.31;;;22.75;59.10
12358;BME280;6243;51.244;6.774;2023-04-01T12:05:03;153290.00;;;23.04;58.36
12358;BME280;6243;51.244;6.774;2023-04-01T12:07:50;153214.31;;;22.75;58.80
12358;BME280;6243;51.244;6.774;2023-04-01T12:10:19;153248.94;;;22.88;58.35
12358;BME280;6243;51.244;6.774;2023-04-01T12:12:52;153268.16;;;22.96;58.49
12358;BME280;6243;51.244;6.774;2023-04-01T12:15:28;153210.44;;;22.73;58.52
12358;BME280;6243;51.244;6.774;2023-04-01T12:17:59;153238.66;;;22.84;58.95
12358;BME280;6243;51.244;6.774;2023-04-01T12:20:35;153297.69;;;23.07;58.36
12358;BME280;6243;51.244;6.774;2023-04-01T12:23:18;153318.25;;;23.15;58.36
12358;BME280;6243;51.244;6.774;2023-04-01T12:26:07;153304.09;;;23.10;58.74
12358;BME280;6243;51.244;6.774;2023-04-01T12:28:43;153318.25;;;23.15;58.62
12358;BME280;6243;51.244;6.774;2023-04-01T12:31:32;153323.38;;;23.17;58.33
12358;BME280;6243;51.244;6.774;2023-04-01T12:34:26;153277.19;;;22.99;58.68
12358;BME280;6243;51.244;6.774;2023-04-01T12:37:04;153248.94;;;22.88;58.61
12358;BME280;6243;51.244;6.774;2023-04-01T12:39:48;153243.81;;;22.86;58.37
12358;BME280;6243;51.244;6.774;2023-04-01T12:42:24;153273.28;;;22.98;58.17
12358;BME280;6243;51.244;6.774;2023-04-01T12:45:04;153264.34;;;22.94;58.06
12358;BME280;6243;51.244;6.774;2023-04-01T12:48:05;153318.25;;;23.15;58.72
12358;BME280;6243;51.244;6.774;2023-04-01T12:50:45;153342.63;;;23.25;58.36
12358;BME280;6243;51.244;6.774;2023-04-01T12:53:25;153343.88;;;23.25;58.50
12358;BME280;6243;51.244;6.774;2023-04-01T12:55:58;153346.47;;;23.26;58.42
12358;BME280;6243;51.244;6.774;2023-04-01T12:58:42;153318.25;;;23.15;58.34
12358;BME280;6243;51.244;6.774;2023-04-01T13:01:34;153385.00;;;23.42;57.98
12358;BME280;6243;51.244;6.774;2023-04-01T13:07:45;153400.44;;;23.48;57.89
12358;BME280;6243;51.244;6.774;2023-04-01T13:10:25;153355.44;;;23.30;58.07
12358;BME280;6243;51.244;6.774;2023-04-01T13:13:27;153356.72;;;23.30;58.11
12358;BME280;6243;51.244;6.774;2023-04-01T13:15:56;153352.91;;;23.29;58.43
12358;BME280;6243;51.244;6.774;2023-04-01T13:18:31;153349.00;;;23.27;57.98
12358;BME280;6243;51.244;6.774;2023-04-01T13:21:06;153341.34;;;23.24;58.06
12358;BME280;6243;51.244;6.774;2023-04-01T13:23:48;153365.78;;;23.34;58.10
12358;BME280;6243;51.244;6.774;2023-04-01T13:26:22;153351.59;;;23.28;58.09
12358;BME280;6243;51.244;6.774;2023-04-01T13:28:53;153385.00;;;23.42;57.44
12358;BME280;6243;51.244;6.774;2023-04-01T13:31:38;153300.28;;;23.08;57.29
12358;BME280;6243;51.244;6.774;2023-04-01T13:34:29;153318.25;;;23.15;57.49
12358;BME280;6243;51.244;6.774;2023-04-01T13:37:11;153293.84;;;23.06;57.60
12358;BME280;6243;51.244;6.774;2023-04-01T13:39:52;153365.78;;;23.34;57.31
12358;BME280;6243;51.244;6.774;2023-04-01T13:42:25;153332.34;;;23.21;57.38
12358;BME280;6243;51.244;6.774;2023-04-01T13:44:57;153336.22;;;23.22;57.52
12358;BME280;6243;51.244;6.774;2023-04-01T13:47:54;153279.72;;;23.00;57.91
12358;BME280;6243;51.244;6.774;2023-04-01T13:56:16;153331.09;;;23.20;57.27
12358;BME280;6243;51.244;6.774;2023-04-01T13:58:56;153311.81;;;23.13;57.79
12358;BME280;6243;51.244;6.774;2023-04-01T14:01:31;153298.97;;;23.08;57.60
12358;BME280;6243;51.244;6.774;2023-04-01T14:04:25;153341.34;;;23.24;57.50
12358;BME280;6243;51.244;6.774;2023-04-01T14:07:00;153290.00;;;23.04;57.57
12358;BME280;6243;51.244;6.774;2023-04-01T14:09:45;153318.25;;;23.15;57.56
12358;BME280;6243;51.244;6.774;2023-04-01T14:12:26;153328.50;;;23.19;57.65
12358;BME280;6243;51.244;6.774;2023-04-01T14:15:05;153331.09;;;23.20;57.34
12358;BME280;6243;51.244;6.774;2023-04-01T14:17:46;153332.34;;;23.21;57.54
12358;BME280;6243;51.244;6.774;2023-04-01T14:20:29;153292.56;;;23.05;57.48
12358;BME280;6243;51.244;6.774;2023-04-01T14:23:13;153248.94;;;22.88;58.53
12358;BME280;6243;51.244;6.774;2023-04-01T14:26:06;153328.50;;;23.19;58.02
12358;BME280;6243;51.244;6.774;2023-04-01T14:28:40;153391.44;;;23.44;57.32
12358;BME280;6243;51.244;6.774;2023-04-01T14:31:21;153354.19;;;23.29;56.77
12358;BME280;6243;51.244;6.774;2023-04-01T14:33:58;153420.97;;;23.56;56.41
12358;BME280;6243;51.244;6.774;2023-04-01T14:36:51;153403.00;;;23.49;56.85
12358;BME280;6243;51.244;6.774;2023-04-01T14:39:29;153378.59;;;23.39;56.92